LTAU/ASR METAR and TAF weather

Enter ICAO airport designator
Station Type Date Time Source
LTAU METAR 2018/12/15 21:20 UTC NOAA

LTAU 152120Z 09010KT 9999 FEW040 BKN180 03/00 Q1024 NOSIG


Station Type Date Time Source
LTAU Decoded METAR 2018/12/15 21:20 UTC NOAA

Kayseri / Erkilet, Turkey (LTAU) 38-47N 035-29E 1054M
Dec 15, 2018 - 04:20 PM EST / 2018.12.15 2120 UTC
Wind: from the E (090 degrees) at 12 MPH (10 KT):0
Visibility: greater than 7 mile(s):0
Sky conditions: mostly cloudy
Temperature: 37 F (3 C)
Dew Point: 32 F (0 C)
Relative Humidity: 80%
Pressure (altimeter): 30.24 in. Hg (1024 hPa)
ob: LTAU 152120Z 09010KT 9999 FEW040 BKN180 03/00 Q1024 NOSIG
cycle: 21

Station Type Date Time Source
LTAU TAF 2018/12/15 18:03 UTC NOAA

TAF LTAU 151640Z 1518/1618 05008KT 9999 FEW040 BKN180


Example: see airport list